Terminal Aerodrome Forecast
Issued by NWS

Home | Current Version | Previous Version | Graphics & Text | Print | Product List | Glossary On
Versions: 1 2 3 4 5 6 7 8 9 10 11 12 13 14 15 16 17
027
FTUS43 KBIS 051721
TAFDIK
TAF
KDIK 051721Z 0518/0618 28014KT P6SM SCT070
     FM061200 25013KT P6SM SCT150 WS020/28040KT
     FM061600 27022G32KT P6SM BKN150=

USA.gov is the U.S. government's official web portal to all federal, state and local government web resources and services.